Time;durP1;ratioP1;P1;durP2;ratioP2;P2;SDS_P1;SDS_P2;PMS_P1;PMS_P2;Temp;Humidity;BMP_temperature;BMP_pressure;BME280_temperature;BME280_humidity;BME280_pressure;Samples;Min_cycle;Max_cycle;Signal;HPM_P1;HPM_P2
2022/10/26 00:01:27;;;;;;;6.83;4.10;;;13.30;99.90;;;;;;4973049;28;20440;-69
2022/10/26 00:03:55;;;;;;;6.77;4.17;;;13.40;99.90;;;;;;4973926;28;20303;-69
2022/10/26 00:06:23;;;;;;;7.00;4.73;;;13.30;99.90;;;;;;4972486;28;20931;-69
2022/10/26 00:08:51;;;;;;;4.97;4.57;;;13.30;99.90;;;;;;4973776;28;20542;-69
2022/10/26 00:11:18;;;;;;;11.90;5.40;;;13.30;99.90;;;;;;4973735;28;20883;-69
2022/10/26 00:13:44;;;;;;;5.63;4.10;;;13.30;99.90;;;;;;4973305;28;20474;-69
2022/10/26 00:16:30;;;;;;;5.63;4.10;;;13.30;99.90;;;;;;4973366;28;20444;-69
2022/10/26 00:18:55;;;;;;;9.47;3.90;;;13.30;99.90;;;;;;4973872;28;20438;-69
2022/10/26 00:21:21;;;;;;;9.83;4.37;;;13.20;99.90;;;;;;4973350;28;20945;-69
2022/10/26 00:23:46;;;;;;;4.40;4.00;;;13.30;99.90;;;;;;4973874;28;20621;-69
2022/10/26 00:26:12;;;;;;;8.77;4.37;;;13.40;99.90;;;;;;4973281;28;20340;-69
2022/10/26 00:28:38;;;;;;;4.13;3.60;;;13.40;99.90;;;;;;4988048;28;20257;-69
2022/10/26 00:31:11;;;;;;;7.60;5.27;;;13.30;99.90;;;;;;4972481;28;20191;-69
2022/10/26 00:33:37;;;;;;;6.10;3.67;;;13.30;99.90;;;;;;4973175;28;20338;-69
2022/10/26 00:36:03;;;;;;;5.67;4.13;;;13.40;99.90;;;;;;4972402;28;20874;-69
2022/10/26 00:38:28;;;;;;;4.03;3.57;;;13.40;99.90;;;;;;4972877;28;20782;-69
2022/10/26 00:40:54;;;;;;;4.53;3.60;;;13.30;99.90;;;;;;4972299;28;20211;-69
2022/10/26 00:43:28;;;;;;;10.73;4.00;;;13.40;99.90;;;;;;4973379;28;20204;-69
2022/10/26 00:45:56;;;;;;;4.93;3.03;;;13.40;99.90;;;;;;4972394;28;20184;-69
2022/10/26 00:48:28;;;;;;;4.90;3.73;;;13.40;99.90;;;;;;4973467;28;20431;-69
2022/10/26 00:50:57;;;;;;;3.87;3.57;;;13.40;99.90;;;;;;4973007;28;20445;-69
2022/10/26 00:53:23;;;;;;;5.63;4.37;;;13.40;99.90;;;;;;4973370;28;21098;-69
2022/10/26 00:55:51;;;;;;;4.33;2.80;;;13.40;99.90;;;;;;4973434;28;20436;-69
2022/10/26 00:58:19;;;;;;;6.17;3.33;;;13.40;99.90;;;;;;4971287;28;20466;-69
2022/10/26 01:00:44;;;;;;;8.23;4.83;;;13.40;99.90;;;;;;4973097;28;20447;-69
2022/10/26 01:03:10;;;;;;;7.20;3.03;;;13.40;99.90;;;;;;4972760;28;20451;-69
2022/10/26 01:05:39;;;;;;;4.70;4.00;;;13.40;99.90;;;;;;4973121;28;20646;-69
2022/10/26 01:08:06;;;;;;;6.43;3.20;;;13.40;99.90;;;;;;4973186;28;20467;-69
2022/10/26 01:10:34;;;;;;;6.10;3.00;;;13.40;99.90;;;;;;4970698;28;20447;-69
2022/10/26 01:13:01;;;;;;;8.87;4.07;;;13.40;99.90;;;;;;4971654;28;20475;-69
2022/10/26 01:15:47;;;;;;;9.10;4.53;;;13.40;99.90;;;;;;4972110;28;20535;-69
2022/10/26 01:18:35;;;;;;;3.90;3.00;;;13.50;99.90;;;;;;4970932;28;20450;-69
2022/10/26 01:21:39;;;;;;;3.67;3.37;;;13.40;99.90;;;;;;4971174;28;20441;-69
2022/10/26 01:24:27;;;;;;;4.20;2.90;;;13.50;99.90;;;;;;4971145;28;20481;-69
2022/10/26 01:27:24;;;;;;;7.03;4.30;;;13.60;99.90;;;;;;4969572;28;20443;-69
2022/10/26 01:30:25;;;;;;;5.03;3.17;;;13.60;99.90;;;;;;4968373;28;20494;-69
2022/10/26 01:32:57;;;;;;;3.60;3.30;;;13.50;99.90;;;;;;4966725;28;20498;-69
2022/10/26 01:35:52;;;;;;;6.37;3.87;;;13.60;99.90;;;;;;4969458;28;20438;-69
2022/10/26 01:38:37;;;;;;;3.83;3.50;;;13.60;99.90;;;;;;4971038;28;20936;-69
2022/10/26 01:41:11;;;;;;;11.03;3.57;;;13.60;99.90;;;;;;4970412;28;20526;-69
2022/10/26 01:43:42;;;;;;;6.70;3.20;;;13.60;99.90;;;;;;4971952;28;20538;-69
2022/10/26 01:46:09;;;;;;;3.40;3.10;;;13.60;99.90;;;;;;4971476;28;20454;-69
2022/10/26 01:48:36;;;;;;;5.90;3.70;;;13.60;99.90;;;;;;4971738;28;20458;-69
2022/10/26 01:51:03;;;;;;;7.13;3.33;;;13.60;99.90;;;;;;4971945;28;20467;-69
2022/10/26 01:53:29;;;;;;;4.67;3.07;;;13.60;99.90;;;;;;4970802;28;20482;-69
2022/10/26 01:55:55;;;;;;;7.13;3.70;;;13.50;99.90;;;;;;4970665;28;20436;-69
2022/10/26 01:58:32;;;;;;;9.53;3.57;;;13.50;99.90;;;;;;4971497;28;20717;-69
2022/10/26 02:01:14;;;;;;;4.87;3.57;;;13.50;99.90;;;;;;4968253;28;20180;-69
2022/10/26 02:04:14;;;;;;;7.00;3.50;;;13.30;99.90;;;;;;4966670;28;20466;-69
2022/10/26 02:07:10;;;;;;;6.43;3.90;;;13.30;99.90;;;;;;4970561;28;20785;-69
2022/10/26 02:10:00;;;;;;;4.90;3.40;;;13.40;99.90;;;;;;4970033;28;20949;-69
2022/10/26 02:12:26;;;;;;;7.10;3.47;;;13.30;99.90;;;;;;4964452;28;20562;-69
2022/10/26 02:15:16;;;;;;;3.40;3.10;;;13.30;99.90;;;;;;4971605;28;20515;-69
2022/10/26 02:17:57;;;;;;;5.00;3.30;;;13.30;99.90;;;;;;4967483;28;20187;-69
2022/10/26 02:20:30;;;;;;;4.33;3.70;;;13.40;99.90;;;;;;4966357;28;21036;-69
2022/10/26 02:22:57;;;;;;;5.23;3.10;;;13.30;99.90;;;;;;4971405;28;20506;-69
2022/10/26 02:25:29;;;;;;;8.53;3.00;;;13.30;99.90;;;;;;4968799;28;20530;-69
2022/10/26 02:28:00;;;;;;;3.47;2.97;;;13.40;99.90;;;;;;4970555;28;20493;-69
2022/10/26 02:30:26;;;;;;;6.10;3.40;;;13.30;99.90;;;;;;4970590;28;20510;-69
2022/10/26 02:32:55;;;;;;;3.87;3.50;;;13.30;99.90;;;;;;4972659;28;21003;-69
2022/10/26 02:35:26;;;;;;;5.93;3.10;;;13.40;99.90;;;;;;4972337;28;20177;-68
2022/10/26 02:37:54;;;;;;;7.43;3.40;;;13.40;99.90;;;;;;4975871;28;20937;-69
2022/10/26 02:40:25;;;;;;;4.03;3.00;;;13.30;99.90;;;;;;4970121;28;20979;-69
2022/10/26 02:42:52;;;;;;;3.93;3.53;;;13.40;99.90;;;;;;4975022;28;20462;-69
2022/10/26 02:45:24;;;;;;;3.80;3.13;;;13.40;99.90;;;;;;4974765;28;20471;-69
2022/10/26 02:47:51;;;;;;;4.33;3.00;;;13.40;99.90;;;;;;4972131;28;20435;-69
2022/10/26 02:50:18;;;;;;;3.67;3.23;;;13.40;99.90;;;;;;4973424;28;20988;-69
2022/10/26 02:52:49;;;;;;;3.57;3.27;;;13.40;99.90;;;;;;4974228;28;21060;-69
2022/10/26 02:55:24;;;;;;;5.33;3.33;;;13.40;99.90;;;;;;4974254;28;20427;-69
2022/10/26 02:58:03;;;;;;;6.17;3.60;;;13.50;99.90;;;;;;4972461;28;20437;-68
2022/10/26 03:00:30;;;;;;;4.50;3.70;;;13.40;99.90;;;;;;4974204;28;20431;-69
2022/10/26 03:02:58;;;;;;;5.70;3.60;;;13.40;99.90;;;;;;4974093;28;21291;-68
2022/10/26 03:05:26;;;;;;;5.93;3.43;;;13.50;99.90;;;;;;4974532;28;20447;-68
2022/10/26 03:07:53;;;;;;;4.97;3.70;;;13.50;99.90;;;;;;4974411;28;20470;-68
2022/10/26 03:10:18;;;;;;;2.93;2.73;;;13.60;99.90;;;;;;4973856;28;20476;-69
2022/10/26 03:12:44;;;;;;;6.50;3.10;;;13.60;99.90;;;;;;4974216;28;20507;-69
2022/10/26 03:15:10;;;;;;;4.53;3.20;;;13.60;99.90;;;;;;4974731;28;20180;-69
2022/10/26 03:17:35;;;;;;;6.70;5.90;;;13.70;99.90;;;;;;4972978;28;20533;-69
2022/10/26 03:20:01;;;;;;;3.47;2.83;;;13.60;99.90;;;;;;4973994;28;20530;-68
2022/10/26 03:22:27;;;;;;;7.70;3.90;;;13.60;99.90;;;;;;4973552;28;20188;-69
2022/10/26 03:24:52;;;;;;;3.53;2.83;;;13.70;99.90;;;;;;4975000;28;20607;-69
2022/10/26 03:27:18;;;;;;;7.10;3.77;;;13.60;99.90;;;;;;4973278;28;20185;-68
2022/10/26 03:29:43;;;;;;;4.93;2.93;;;13.60;99.90;;;;;;4973481;28;20180;-69
2022/10/26 03:32:09;;;;;;;3.37;3.07;;;13.70;99.90;;;;;;4974551;28;20243;-68
2022/10/26 03:34:34;;;;;;;5.63;2.67;;;13.70;99.90;;;;;;4974386;28;20220;-68
2022/10/26 03:37:00;;;;;;;9.90;4.03;;;13.70;99.90;;;;;;4973618;28;20192;-68
2022/10/26 03:39:26;;;;;;;3.50;2.87;;;13.70;99.90;;;;;;4972462;28;20176;-68
2022/10/26 03:41:51;;;;;;;5.30;3.20;;;13.70;99.90;;;;;;4974442;28;20523;-68
2022/10/26 03:44:17;;;;;;;3.60;3.13;;;13.80;99.90;;;;;;4973581;28;20632;-69
2022/10/26 03:46:42;;;;;;;3.70;2.83;;;13.80;99.90;;;;;;4973295;28;20722;-68
2022/10/26 03:49:08;;;;;;;4.07;2.90;;;13.90;99.90;;;;;;4973122;28;20188;-68
2022/10/26 03:51:33;;;;;;;3.63;2.80;;;13.90;99.90;;;;;;4974363;28;20176;-68
2022/10/26 03:53:59;;;;;;;3.73;3.20;;;13.90;99.90;;;;;;4972418;28;20713;-68
2022/10/26 03:56:25;;;;;;;3.53;3.27;;;13.90;99.90;;;;;;4972219;28;20215;-68
2022/10/26 03:58:51;;;;;;;4.50;3.27;;;13.90;99.90;;;;;;4973474;28;20184;-68
2022/10/26 04:01:16;;;;;;;3.43;2.87;;;13.90;99.90;;;;;;4972073;28;20489;-68
2022/10/26 04:03:42;;;;;;;3.20;2.83;;;14.00;99.90;;;;;;4973226;28;20290;-68
2022/10/26 04:06:07;;;;;;;2.90;2.67;;;14.00;99.90;;;;;;4970682;28;21537;-68
2022/10/26 04:08:33;;;;;;;6.33;3.27;;;14.00;99.90;;;;;;4972736;28;20211;-69
2022/10/26 04:10:58;;;;;;;5.70;3.47;;;14.00;99.90;;;;;;4973374;28;20584;-68
2022/10/26 04:13:24;;;;;;;3.43;3.00;;;14.00;99.90;;;;;;4973272;28;20586;-68
2022/10/26 04:15:49;;;;;;;3.67;2.67;;;14.00;99.90;;;;;;4973044;28;20185;-68
2022/10/26 04:18:15;;;;;;;4.53;2.83;;;14.00;99.90;;;;;;4972148;28;20176;-69
2022/10/26 04:20:41;;;;;;;7.60;3.07;;;14.20;99.90;;;;;;4972948;28;20183;-68
2022/10/26 04:23:11;;;;;;;4.57;3.10;;;14.10;99.90;;;;;;4973745;28;20497;-69
2022/10/26 04:25:37;;;;;;;5.53;3.77;;;14.10;99.90;;;;;;4972864;28;20482;-68
2022/10/26 04:28:04;;;;;;;5.63;2.87;;;14.00;99.90;;;;;;4971395;28;20518;-68
2022/10/26 04:30:31;;;;;;;3.33;2.97;;;13.90;99.90;;;;;;4971403;28;20303;-68
2022/10/26 04:32:56;;;;;;;4.73;3.23;;;13.80;99.90;;;;;;4974187;28;20482;-68
2022/10/26 04:35:22;;;;;;;3.43;3.13;;;13.70;99.90;;;;;;4974713;28;20423;-68
2022/10/26 04:37:48;;;;;;;5.23;3.70;;;13.60;99.90;;;;;;4971295;28;20567;-68
2022/10/26 04:40:13;;;;;;;5.57;3.60;;;13.50;99.90;;;;;;4973333;28;20187;-68
2022/10/26 04:42:43;;;;;;;4.07;3.67;;;13.50;99.90;;;;;;4973704;28;20562;-68
2022/10/26 04:45:09;;;;;;;4.93;3.80;;;13.50;99.90;;;;;;4972951;28;20615;-68
2022/10/26 04:47:35;;;;;;;8.73;3.67;;;13.50;99.90;;;;;;4972224;28;20514;-68
2022/10/26 04:50:00;;;;;;;3.70;3.33;;;13.50;99.90;;;;;;4972648;28;20210;-68
2022/10/26 04:52:26;;;;;;;4.90;3.20;;;13.50;99.90;;;;;;4973248;28;20231;-67
2022/10/26 04:54:51;;;;;;;6.97;3.40;;;13.50;99.90;;;;;;4972597;28;20183;-67
2022/10/26 04:57:17;;;;;;;4.23;3.10;;;13.50;99.90;;;;;;4970838;28;20184;-67
2022/10/26 04:59:42;;;;;;;5.60;4.03;;;13.50;99.90;;;;;;4972461;28;20349;-68
2022/10/26 05:02:08;;;;;;;8.10;3.83;;;13.50;99.90;;;;;;4972529;28;20603;-67
2022/10/26 05:04:33;;;;;;;10.20;3.83;;;13.50;99.90;;;;;;4971898;28;20200;-67
2022/10/26 05:06:59;;;;;;;4.43;2.80;;;13.60;99.90;;;;;;4972681;28;20193;-67
2022/10/26 05:09:24;;;;;;;5.43;4.57;;;13.60;99.90;;;;;;4972511;28;20265;-67
2022/10/26 05:11:50;;;;;;;5.10;3.20;;;13.60;99.90;;;;;;4971867;28;20188;-67
2022/10/26 05:14:15;;;;;;;3.77;3.40;;;13.60;99.90;;;;;;4971401;28;20231;-67
2022/10/26 05:16:43;;;;;;;8.30;3.57;;;13.70;99.90;;;;;;4969364;28;20256;-67
2022/10/26 05:19:09;;;;;;;8.43;3.60;;;13.70;99.90;;;;;;4971758;28;20173;-67
2022/10/26 05:21:34;;;;;;;3.60;3.23;;;13.70;99.90;;;;;;4971927;28;20440;-67
2022/10/26 05:24:00;;;;;;;5.00;3.20;;;13.70;99.90;;;;;;4971754;28;20263;-67
2022/10/26 05:26:25;;;;;;;4.03;2.77;;;13.80;99.90;;;;;;4972055;28;20670;-67
2022/10/26 05:28:52;;;;;;;5.43;2.53;;;13.90;99.90;;;;;;4972039;28;20189;-67
2022/10/26 05:31:17;;;;;;;3.67;3.13;;;13.80;99.90;;;;;;4971160;28;20255;-67
2022/10/26 05:33:43;;;;;;;3.37;3.17;;;13.90;99.90;;;;;;4968442;28;20509;-68
2022/10/26 05:36:08;;;;;;;3.20;3.00;;;13.90;99.90;;;;;;4971706;28;20191;-67
2022/10/26 05:38:34;;;;;;;4.40;3.60;;;13.90;99.90;;;;;;4970008;28;20199;-68
2022/10/26 05:41:02;;;;;;;7.93;3.07;;;13.90;99.90;;;;;;4971410;28;20534;-67
2022/10/26 05:43:29;;;;;;;4.60;3.67;;;14.00;99.90;;;;;;4972171;28;20196;-67
2022/10/26 05:45:54;;;;;;;6.87;4.10;;;14.00;99.90;;;;;;4971494;28;20444;-67
2022/10/26 05:48:20;;;;;;;5.43;3.70;;;13.90;99.90;;;;;;4970801;28;20961;-67
2022/10/26 05:50:46;;;;;;;3.33;3.03;;;14.10;99.90;;;;;;4971943;28;20184;-67
2022/10/26 05:53:12;;;;;;;6.60;3.90;;;14.10;99.90;;;;;;4971487;28;20240;-68
2022/10/26 05:55:38;;;;;;;3.80;3.30;;;14.10;99.90;;;;;;4971376;28;20169;-67
2022/10/26 05:58:07;;;;;;;4.47;3.40;;;14.10;99.90;;;;;;4971291;28;20677;-67
2022/10/26 06:00:33;;;;;;;6.80;3.50;;;14.10;99.90;;;;;;4971434;28;20195;-67
2022/10/26 06:03:18;;;;;;;23.47;13.83;;;14.10;99.90;;;;;;4965834;28;20456;-67
2022/10/26 06:05:54;;;;;;;3.67;3.23;;;14.20;99.90;;;;;;4970590;28;20529;-68
2022/10/26 06:08:21;;;;;;;5.63;2.80;;;14.20;99.90;;;;;;4975462;28;20494;-68
2022/10/26 06:10:48;;;;;;;3.00;2.70;;;14.30;99.90;;;;;;4975652;28;20514;-68
2022/10/26 06:13:14;;;;;;;4.00;3.20;;;14.30;99.90;;;;;;4975358;28;20839;-67
2022/10/26 06:15:51;;;;;;;3.67;3.30;;;14.40;99.90;;;;;;4975620;28;20435;-67
2022/10/26 06:18:38;;;;;;;3.13;2.93;;;14.40;99.90;;;;;;4960994;28;20902;-68
2022/10/26 06:21:27;;;;;;;4.80;2.50;;;14.50;99.90;;;;;;4952326;28;20791;-67
2022/10/26 06:24:08;;;;;;;7.70;3.50;;;14.50;99.90;;;;;;4958774;28;20526;-68
2022/10/26 06:27:01;;;;;;;7.50;2.87;;;14.60;99.90;;;;;;4967735;28;20436;-68
2022/10/26 06:29:49;;;;;;;7.97;3.07;;;14.60;99.90;;;;;;4968931;28;20431;-67
2022/10/26 06:32:16;;;;;;;6.00;3.30;;;14.60;99.90;;;;;;4974334;28;22159;-68
2022/10/26 06:34:46;;;;;;;3.10;2.90;;;14.50;99.90;;;;;;4975502;28;20456;-67
2022/10/26 06:37:12;;;;;;;5.13;2.60;;;14.40;99.90;;;;;;4973444;28;20435;-67
2022/10/26 06:39:43;;;;;;;4.93;3.20;;;14.40;99.90;;;;;;4968389;28;20474;-67
2022/10/26 06:42:10;;;;;;;2.40;2.20;;;14.30;99.90;;;;;;4972905;28;20443;-66
2022/10/26 06:44:36;;;;;;;3.10;2.80;;;14.30;99.90;;;;;;4974824;28;20455;-67
2022/10/26 06:47:30;;;;;;;10.33;3.80;;;14.30;99.90;;;;;;4972428;28;20432;-66
2022/10/26 06:50:02;;;;;;;5.53;3.70;;;14.50;99.90;;;;;;4971856;28;20462;-67
2022/10/26 06:52:39;;;;;;;7.80;3.37;;;14.50;99.90;;;;;;4969907;28;21060;-67
2022/10/26 06:55:05;;;;;;;4.90;3.27;;;14.30;99.90;;;;;;4965984;28;20431;-68
2022/10/26 06:57:36;;;;;;;5.20;3.27;;;14.40;99.90;;;;;;4974760;28;20435;-67
2022/10/26 07:00:18;;;;;;;5.53;3.60;;;14.40;99.90;;;;;;4971526;28;20447;-68
2022/10/26 07:02:44;;;;;;;5.33;2.93;;;14.50;99.90;;;;;;4974885;28;20474;-67
2022/10/26 07:05:11;;;;;;;4.90;3.93;;;14.50;99.90;;;;;;4974916;28;20431;-67
2022/10/26 07:07:41;;;;;;;5.60;3.40;;;14.50;99.90;;;;;;4965239;28;20176;-67
2022/10/26 07:10:08;;;;;;;4.37;3.10;;;14.60;99.90;;;;;;4973989;28;20522;-67
2022/10/26 07:12:34;;;;;;;8.90;4.40;;;14.60;99.90;;;;;;4971103;28;20464;-68
2022/10/26 07:15:00;;;;;;;4.40;4.00;;;14.60;99.90;;;;;;4974767;28;20448;-67
2022/10/26 07:17:27;;;;;;;6.13;3.50;;;14.70;99.90;;;;;;4973024;28;20451;-67
2022/10/26 07:19:53;;;;;;;3.80;3.10;;;14.70;99.90;;;;;;4968979;28;20173;-67
2022/10/26 07:22:19;;;;;;;8.63;3.40;;;14.80;99.90;;;;;;4974459;28;21020;-68
2022/10/26 07:24:44;;;;;;;4.67;2.87;;;14.90;99.90;;;;;;4973147;28;20534;-67
2022/10/26 07:27:10;;;;;;;4.23;3.63;;;15.00;99.90;;;;;;4971730;28;20651;-67
2022/10/26 07:29:35;;;;;;;3.90;3.30;;;15.10;99.90;;;;;;4970389;28;20578;-66
2022/10/26 07:32:01;;;;;;;5.57;4.20;;;15.10;99.90;;;;;;4973029;28;20243;-66
2022/10/26 07:34:26;;;;;;;7.30;4.10;;;15.20;99.90;;;;;;4974843;28;20207;-66
2022/10/26 07:36:52;;;;;;;4.90;3.63;;;15.20;99.90;;;;;;4974426;28;20563;-66
2022/10/26 07:39:17;;;;;;;6.77;3.70;;;15.20;99.90;;;;;;4970992;28;20188;-66
2022/10/26 07:41:45;;;;;;;4.20;3.80;;;15.30;99.90;;;;;;4973508;28;20191;-66
2022/10/26 07:44:10;;;;;;;7.17;4.20;;;15.20;99.90;;;;;;4973401;28;20603;-68
2022/10/26 07:46:36;;;;;;;7.70;6.30;;;15.30;99.90;;;;;;4973940;28;20444;-66
2022/10/26 07:49:02;;;;;;;6.60;4.13;;;15.30;99.90;;;;;;4968409;28;20192;-67
2022/10/26 07:51:27;;;;;;;4.93;4.50;;;15.50;99.90;;;;;;4975925;28;20188;-68
2022/10/26 07:53:53;;;;;;;6.37;3.97;;;15.60;99.90;;;;;;4978880;28;20224;-69
2022/10/26 07:56:18;;;;;;;3.63;3.30;;;15.70;99.90;;;;;;4973897;28;20647;-65
2022/10/26 07:58:44;;;;;;;6.17;4.63;;;15.70;99.90;;;;;;4967536;28;20188;-65
2022/10/26 08:01:12;;;;;;;4.87;3.80;;;15.70;99.90;;;;;;4973191;28;20197;-65
2022/10/26 08:03:37;;;;;;;7.77;4.53;;;15.80;99.90;;;;;;4972644;28;20574;-66
2022/10/26 08:06:03;;;;;;;6.30;4.00;;;15.80;99.90;;;;;;4971670;28;20443;-66
2022/10/26 08:08:30;;;;;;;8.30;4.53;;;15.70;99.90;;;;;;4966339;28;21081;-66
2022/10/26 08:10:56;;;;;;;4.00;3.43;;;15.80;99.90;;;;;;4968652;28;20491;-66
2022/10/26 08:13:22;;;;;;;6.40;3.27;;;15.80;99.90;;;;;;4971085;28;20479;-66
2022/10/26 08:15:47;;;;;;;4.13;3.57;;;15.80;99.90;;;;;;4973240;28;20439;-67
2022/10/26 08:18:13;;;;;;;5.80;3.43;;;15.80;99.90;;;;;;4969847;28;20271;-66
2022/10/26 08:20:38;;;;;;;4.43;3.63;;;15.70;99.90;;;;;;4972495;28;20267;-66
2022/10/26 08:23:05;;;;;;;7.20;3.97;;;15.80;99.90;;;;;;4969769;28;20211;-67
2022/10/26 08:25:31;;;;;;;5.17;4.70;;;15.80;99.90;;;;;;4969247;28;20196;-66
2022/10/26 08:28:02;;;;;;;5.60;3.70;;;16.00;99.90;;;;;;4972719;28;20859;-66
2022/10/26 08:30:28;;;;;;;4.23;3.50;;;15.80;99.90;;;;;;4972559;28;20443;-65
2022/10/26 08:33:04;;;;;;;5.40;3.70;;;15.90;99.90;;;;;;4972390;28;20482;-65
2022/10/26 08:35:31;;;;;;;4.23;3.60;;;15.90;99.90;;;;;;4972275;28;20439;-66
2022/10/26 08:37:56;;;;;;;5.60;3.50;;;16.00;99.90;;;;;;4970659;28;21958;-66
2022/10/26 08:40:32;;;;;;;5.17;4.37;;;16.00;99.90;;;;;;4970998;28;20435;-65
2022/10/26 08:43:10;;;;;;;9.67;4.23;;;16.00;99.90;;;;;;4964806;28;20200;-66
2022/10/26 08:45:39;;;;;;;7.70;4.67;;;16.00;99.90;;;;;;4973216;28;20447;-65
2022/10/26 08:48:14;;;;;;;4.03;3.40;;;16.00;99.90;;;;;;4966838;28;20493;-66
2022/10/26 08:51:07;;;;;;;3.90;3.50;;;16.00;99.90;;;;;;4973562;28;20534;-66
2022/10/26 08:53:37;;;;;;;6.83;3.60;;;16.10;99.90;;;;;;4967564;28;20488;-66
2022/10/26 08:56:16;;;;;;;4.07;3.57;;;16.10;99.90;;;;;;4979325;28;20522;-66
2022/10/26 08:58:53;;;;;;;4.30;3.80;;;16.20;99.90;;;;;;4969086;28;20446;-66
2022/10/26 09:01:19;;;;;;;4.40;3.97;;;16.30;99.90;;;;;;4973112;28;20469;-66
2022/10/26 09:03:44;;;;;;;4.33;3.93;;;16.40;99.90;;;;;;4972532;28;20486;-66
2022/10/26 09:06:38;;;;;;;3.67;3.37;;;16.60;99.90;;;;;;4973067;28;20235;-66
2022/10/26 09:09:18;;;;;;;4.70;4.03;;;16.70;99.90;;;;;;4965454;28;20188;-66
2022/10/26 09:12:18;;;;;;;6.03;3.40;;;16.90;99.90;;;;;;4973060;28;20447;-66
2022/10/26 09:15:09;;;;;;;4.73;3.33;;;17.00;99.90;;;;;;4972766;28;20463;-66
2022/10/26 09:17:40;;;;;;;3.40;3.10;;;17.20;99.90;;;;;;4970288;28;20789;-67
2022/10/26 09:20:45;;;;;;;7.50;3.93;;;17.20;99.90;;;;;;4971142;28;20944;-65
2022/10/26 09:23:38;;;;;;;4.70;3.97;;;17.40;99.90;;;;;;4972561;28;20872;-66
2022/10/26 09:26:07;;;;;;;5.10;2.90;;;17.60;99.90;;;;;;4971500;28;20462;-66
2022/10/26 09:28:35;;;;;;;5.77;3.90;;;17.90;99.90;;;;;;4963735;28;20470;-66
2022/10/26 09:31:03;;;;;;;5.67;3.70;;;18.00;99.90;;;;;;4972441;28;21004;-66
2022/10/26 09:33:34;;;;;;;5.80;3.10;;;18.20;99.90;;;;;;4970582;28;20467;-66
2022/10/26 09:36:07;;;;;;;7.27;2.93;;;18.90;99.90;;;;;;4971699;28;21010;-66
2022/10/26 09:38:54;;;;;;;4.83;3.00;;;20.10;99.90;;;;;;4966696;28;20441;-67
2022/10/26 09:41:27;;;;;;;8.43;3.40;;;21.20;99.90;;;;;;4965426;28;20455;-66
2022/10/26 09:44:10;;;;;;;4.57;3.43;;;22.70;99.90;;;;;;4965167;28;20479;-66
2022/10/26 09:46:55;;;;;;;8.67;2.87;;;25.00;99.90;;;;;;4965165;28;20458;-66
2022/10/26 09:49:30;;;;;;;7.60;3.20;;;25.70;99.90;;;;;;4964668;28;20447;-67
2022/10/26 09:51:55;;;;;;;9.33;7.53;;;27.70;99.90;;;;;;4969513;28;21094;-66
2022/10/26 09:54:21;;;;;;;3.07;2.50;;;28.20;98.20;;;;;;4969286;28;20558;-66
2022/10/26 09:56:53;;;;;;;4.60;2.80;;;28.70;97.40;;;;;;4971090;28;20280;-66
2022/10/26 09:59:21;;;;;;;4.10;2.60;;;30.20;94.00;;;;;;4962904;28;20207;-66
2022/10/26 10:01:47;;;;;;;4.87;3.27;;;30.80;90.70;;;;;;4969409;28;21013;-66
2022/10/26 10:04:12;;;;;;;5.10;3.30;;;29.70;89.00;;;;;;4972071;28;20541;-66
2022/10/26 10:06:39;;;;;;;6.80;3.90;;;27.30;92.60;;;;;;4950765;28;20579;-65
2022/10/26 10:09:12;;;;;;;5.23;3.97;;;25.40;97.60;;;;;;4970731;28;20188;-65
2022/10/26 10:11:57;;;;;;;8.33;4.77;;;23.70;99.90;;;;;;4967419;28;20487;-66
2022/10/26 10:14:32;;;;;;;8.03;4.60;;;22.20;99.90;;;;;;4970346;28;20558;-66
2022/10/26 10:17:01;;;;;;;8.20;3.60;;;21.40;99.90;;;;;;4970684;28;20450;-66
2022/10/26 10:19:32;;;;;;;7.83;4.63;;;21.20;99.90;;;;;;4968337;28;20439;-65
2022/10/26 10:22:00;;;;;;;6.53;3.37;;;21.10;99.90;;;;;;4970036;28;20442;-66
2022/10/26 10:24:30;;;;;;;5.87;3.97;;;22.40;99.90;;;;;;4971311;28;20907;-66
2022/10/26 10:27:03;;;;;;;8.40;4.30;;;24.00;99.90;;;;;;4971355;28;21001;-66
2022/10/26 10:29:33;;;;;;;5.33;3.17;;;25.70;99.90;;;;;;4966745;28;20902;-66
2022/10/26 10:32:01;;;;;;;7.40;2.30;;;27.40;99.90;;;;;;4970425;28;20439;-66
2022/10/26 10:34:32;;;;;;;3.67;2.90;;;28.80;94.60;;;;;;4970820;28;20975;-65
2022/10/26 10:36:59;;;;;;;6.97;3.03;;;29.40;94.60;;;;;;4963484;28;20525;-65
2022/10/26 10:39:40;;;;;;;7.57;3.43;;;28.60;92.90;;;;;;4967292;28;20443;-65
2022/10/26 10:42:22;;;;;;;7.40;3.90;;;27.60;94.90;;;;;;4969275;28;20454;-65
2022/10/26 10:44:52;;;;;;;12.20;9.77;;;26.00;97.60;;;;;;4967249;28;20832;-65
2022/10/26 10:47:22;;;;;;;16.30;14.80;;;25.20;99.90;;;;;;4971424;28;20479;-65
2022/10/26 10:49:54;;;;;;;18.50;13.23;;;25.60;99.90;;;;;;4966284;28;20451;-66
2022/10/26 10:52:37;;;;;;;5.40;3.70;;;26.40;99.90;;;;;;4970271;28;20440;-67
2022/10/26 10:55:12;;;;;;;5.63;3.77;;;26.70;98.60;;;;;;4968909;28;20436;-67
2022/10/26 10:57:57;;;;;;;6.23;3.07;;;27.40;97.20;;;;;;4972943;28;20570;-68
2022/10/26 11:00:24;;;;;;;7.67;4.97;;;29.60;93.20;;;;;;4972565;28;21427;-67
2022/10/26 11:03:15;;;;;;;5.13;3.20;;;31.20;87.90;;;;;;4973919;28;20521;-66
2022/10/26 11:05:59;;;;;;;3.20;2.50;;;32.10;79.70;;;;;;4974961;28;20506;-67
2022/10/26 11:08:37;;;;;;;4.57;3.60;;;33.00;74.20;;;;;;4969303;28;20525;-68
2022/10/26 11:11:14;;;;;;;4.87;3.10;;;34.70;78.40;;;;;;4974176;28;20443;-66
2022/10/26 11:14:05;;;;;;;4.03;3.20;;;32.50;78.10;;;;;;4973977;28;20510;-66
2022/10/26 11:16:41;;;;;;;5.10;3.03;;;30.70;81.20;;;;;;4973490;28;20446;-66
2022/10/26 11:19:20;;;;;;;2.97;2.67;;;28.50;87.50;;;;;;4968942;28;20442;-66
2022/10/26 11:21:50;;;;;;;4.57;3.00;;;27.20;91.60;;;;;;4969180;28;20435;-66
2022/10/26 11:24:28;;;;;;;9.37;3.43;;;25.80;96.10;;;;;;4973758;28;20460;-66
2022/10/26 11:27:07;;;;;;;3.07;2.77;;;25.10;98.90;;;;;;4969756;28;20519;-66
2022/10/26 11:30:10;;;;;;;5.73;2.50;;;25.30;98.90;;;;;;4967137;28;21009;-66
2022/10/26 11:32:44;;;;;;;4.53;2.73;;;26.90;97.70;;;;;;4972805;28;20467;-66
2022/10/26 11:35:28;;;;;;;4.17;3.30;;;27.80;94.80;;;;;;4974018;28;20448;-66
2022/10/26 11:38:16;;;;;;;7.33;3.23;;;27.30;95.10;;;;;;4965805;28;20448;-67
2022/10/26 11:40:53;;;;;;;4.03;2.70;;;27.20;97.20;;;;;;4971439;28;20514;-66
2022/10/26 11:43:32;;;;;;;6.80;3.17;;;27.20;95.80;;;;;;4972897;28;20463;-66
2022/10/26 11:46:20;;;;;;;6.03;2.60;;;27.80;94.70;;;;;;4973401;28;20922;-66
2022/10/26 11:49:14;;;;;;;4.83;2.50;;;28.30;93.40;;;;;;4965546;28;20435;-66
2022/10/26 11:51:54;;;;;;;4.17;2.60;;;29.20;91.50;;;;;;4969933;28;20483;-66
2022/10/26 11:54:43;;;;;;;5.77;2.63;;;27.90;91.80;;;;;;4970657;28;20977;-66
2022/10/26 11:57:11;;;;;;;5.60;3.70;;;26.50;95.10;;;;;;4971699;28;20459;-66
2022/10/26 11:59:44;;;;;;;5.80;3.00;;;26.60;95.70;;;;;;4962364;28;20423;-66
2022/10/26 12:02:23;;;;;;;3.90;2.50;;;26.60;96.00;;;;;;4972459;28;20439;-66
2022/10/26 12:04:58;;;;;;;6.33;2.90;;;26.20;96.70;;;;;;4970572;28;20439;-66
2022/10/26 12:07:31;;;;;;;6.30;2.60;;;25.60;98.00;;;;;;4968926;28;20935;-66
2022/10/26 12:09:59;;;;;;;5.37;2.40;;;25.00;99.70;;;;;;4969792;28;20451;-66
2022/10/26 12:12:24;;;;;;;10.10;2.90;;;24.70;99.90;;;;;;4972302;28;20542;-66
2022/10/26 12:15:11;;;;;;;4.63;2.60;;;24.50;99.90;;;;;;4968441;28;20515;-66
2022/10/26 12:17:41;;;;;;;3.17;2.27;;;24.00;99.90;;;;;;4968781;28;20211;-66
2022/10/26 12:20:25;;;;;;;3.40;2.47;;;23.40;99.90;;;;;;4972353;28;20467;-66
2022/10/26 12:22:51;;;;;;;6.50;2.57;;;23.30;99.90;;;;;;4967130;28;20454;-66
2022/10/26 12:25:19;;;;;;;5.93;2.43;;;23.10;99.90;;;;;;4973117;28;20439;-66
2022/10/26 12:27:45;;;;;;;1.93;1.70;;;23.20;99.90;;;;;;4967873;28;20185;-66
2022/10/26 12:30:16;;;;;;;5.83;3.17;;;23.30;99.90;;;;;;4970878;28;20816;-66
2022/10/26 12:32:48;;;;;;;3.63;2.23;;;23.40;99.90;;;;;;4972182;28;20211;-66
2022/10/26 12:35:30;;;;;;;6.33;2.60;;;23.20;99.90;;;;;;4973409;28;20435;-66
2022/10/26 12:37:56;;;;;;;5.47;2.53;;;23.00;99.90;;;;;;4970430;28;20482;-66
2022/10/26 12:40:33;;;;;;;3.10;2.37;;;22.70;99.90;;;;;;4969854;28;20859;-66
2022/10/26 12:43:16;;;;;;;5.03;2.97;;;22.80;99.90;;;;;;4972578;28;20459;-66
2022/10/26 12:45:44;;;;;;;3.13;1.73;;;23.20;99.90;;;;;;4970132;28;20458;-66
2022/10/26 12:48:24;;;;;;;4.33;2.47;;;24.30;99.90;;;;;;4969487;28;20451;-66
2022/10/26 12:50:51;;;;;;;8.07;2.70;;;24.90;99.90;;;;;;4968830;28;20450;-66
2022/10/26 12:53:21;;;;;;;4.83;2.40;;;24.80;99.90;;;;;;4969996;28;20494;-66
2022/10/26 12:55:47;;;;;;;4.47;2.07;;;24.90;99.90;;;;;;4971326;28;20452;-66
2022/10/26 12:58:27;;;;;;;5.83;2.60;;;24.80;99.90;;;;;;4968699;28;20447;-66
2022/10/26 13:00:58;;;;;;;4.40;2.17;;;25.40;99.90;;;;;;4970736;28;20431;-66
2022/10/26 13:03:34;;;;;;;5.97;3.53;;;27.00;97.40;;;;;;4970412;28;20459;-66
2022/10/26 13:06:39;;;;;;;5.03;2.27;;;28.70;93.20;;;;;;4969308;28;20498;-67
2022/10/26 13:09:15;;;;;;;5.00;2.80;;;28.40;92.50;;;;;;4968297;28;20880;-66